sensor_id;sensor_type;location;lat;lon;timestamp;pressure;altitude;pressure_sealevel;temperature;humidity
60976;BME280;46849;48.154;17.042;2023-01-16T00:01:29;98107.41;;;4.06;100.00
60976;BME280;46849;48.154;17.042;2023-01-16T00:04:14;98115.00;;;3.93;100.00
60976;BME280;46849;48.154;17.042;2023-01-16T00:06:59;98100.91;;;3.99;100.00
60976;BME280;46849;48.154;17.042;2023-01-16T00:09:44;98107.06;;;3.97;100.00
60976;BME280;46849;48.154;17.042;2023-01-16T00:12:30;98104.34;;;4.00;100.00
60976;BME280;46849;48.154;17.042;2023-01-16T00:15:15;98095.09;;;3.94;100.00
60976;BME280;46849;48.154;17.042;2023-01-16T00:17:59;98086.03;;;4.03;100.00
60976;BME280;46849;48.154;17.042;2023-01-16T00:20:46;98069.91;;;3.80;100.00
60976;BME280;46849;48.154;17.042;2023-01-16T00:23:33;98074.72;;;3.70;100.00
60976;BME280;46849;48.154;17.042;2023-01-16T00:26:17;98069.56;;;3.70;100.00
60976;BME280;46849;48.154;17.042;2023-01-16T00:29:02;98075.19;;;3.78;100.00
60976;BME280;46849;48.154;17.042;2023-01-16T00:31:46;98069.06;;;3.79;100.00
60976;BME280;46849;48.154;17.042;2023-01-16T00:34:31;98071.06;;;3.74;100.00
60976;BME280;46849;48.154;17.042;2023-01-16T00:37:16;98078.00;;;3.74;100.00
60976;BME280;46849;48.154;17.042;2023-01-16T00:40:00;98077.78;;;3.78;100.00
60976;BME280;46849;48.154;17.042;2023-01-16T00:42:45;98074.50;;;3.75;100.00
60976;BME280;46849;48.154;17.042;2023-01-16T00:45:30;98073.47;;;3.77;100.00
60976;BME280;46849;48.154;17.042;2023-01-16T00:48:14;98072.88;;;3.72;100.00
60976;BME280;46849;48.154;17.042;2023-01-16T00:51:00;98067.94;;;3.67;100.00
60976;BME280;46849;48.154;17.042;2023-01-16T00:53:44;98063.00;;;3.63;100.00
60976;BME280;46849;48.154;17.042;2023-01-16T00:56:29;98056.91;;;3.64;100.00
60976;BME280;46849;48.154;17.042;2023-01-16T00:59:14;98049.72;;;3.69;100.00
60976;BME280;46849;48.154;17.042;2023-01-16T01:01:59;98045.63;;;3.65;100.00
60976;BME280;46849;48.154;17.042;2023-01-16T01:04:43;98041.91;;;3.53;100.00
60976;BME280;46849;48.154;17.042;2023-01-16T01:12:08;98038.34;;;3.55;100.00
60976;BME280;46849;48.154;17.042;2023-01-16T01:14:53;98030.69;;;3.70;100.00
60976;BME280;46849;48.154;17.042;2023-01-16T01:17:37;98034.19;;;3.69;100.00
60976;BME280;46849;48.154;17.042;2023-01-16T01:20:22;98026.00;;;3.61;100.00
60976;BME280;46849;48.154;17.042;2023-01-16T01:23:07;98024.53;;;3.55;100.00
60976;BME280;46849;48.154;17.042;2023-01-16T01:25:51;98007.34;;;3.54;100.00
60976;BME280;46849;48.154;17.042;2023-01-16T01:28:37;98006.72;;;3.49;100.00
60976;BME280;46849;48.154;17.042;2023-01-16T01:31:21;98004.91;;;3.51;100.00
60976;BME280;46849;48.154;17.042;2023-01-16T01:34:06;98009.28;;;3.66;100.00
60976;BME280;46849;48.154;17.042;2023-01-16T01:36:50;98004.38;;;3.78;100.00
60976;BME280;46849;48.154;17.042;2023-01-16T01:44:00;97997.19;;;3.83;100.00
60976;BME280;46849;48.154;17.042;2023-01-16T01:46:46;97998.78;;;3.86;100.00
60976;BME280;46849;48.154;17.042;2023-01-16T01:49:31;97999.69;;;3.85;100.00
60976;BME280;46849;48.154;17.042;2023-01-16T01:52:17;97994.09;;;3.92;100.00
60976;BME280;46849;48.154;17.042;2023-01-16T01:55:06;98005.84;;;4.00;100.00
60976;BME280;46849;48.154;17.042;2023-01-16T01:57:54;98002.91;;;4.06;100.00
60976;BME280;46849;48.154;17.042;2023-01-16T02:00:41;98003.06;;;4.03;100.00
60976;BME280;46849;48.154;17.042;2023-01-16T02:03:42;98003.16;;;4.01;100.00
60976;BME280;46849;48.154;17.042;2023-01-16T02:06:43;98000.13;;;4.09;100.00
60976;BME280;46849;48.154;17.042;2023-01-16T02:09:28;98003.16;;;4.01;100.00
60976;BME280;46849;48.154;17.042;2023-01-16T02:12:15;97989.84;;;4.07;100.00
60976;BME280;46849;48.154;17.042;2023-01-16T02:15:00;97992.19;;;3.96;100.00
60976;BME280;46849;48.154;17.042;2023-01-16T02:17:45;97981.31;;;3.89;100.00
60976;BME280;46849;48.154;17.042;2023-01-16T02:21:02;97974.88;;;3.97;100.00
60976;BME280;46849;48.154;17.042;2023-01-16T02:29:57;97963.00;;;4.09;100.00
60976;BME280;46849;48.154;17.042;2023-01-16T02:39:11;97948.22;;;4.11;100.00
60976;BME280;46849;48.154;17.042;2023-01-16T02:42:21;97941.34;;;4.10;100.00
60976;BME280;46849;48.154;17.042;2023-01-16T02:51:42;97929.66;;;3.70;100.00
60976;BME280;46849;48.154;17.042;2023-01-16T02:54:42;97928.69;;;3.55;100.00
60976;BME280;46849;48.154;17.042;2023-01-16T02:57:34;97914.41;;;3.48;100.00
60976;BME280;46849;48.154;17.042;2023-01-16T03:00:21;97918.16;;;3.58;100.00
60976;BME280;46849;48.154;17.042;2023-01-16T03:04:03;97913.66;;;3.62;100.00
60976;BME280;46849;48.154;17.042;2023-01-16T03:07:05;97911.59;;;3.52;100.00
60976;BME280;46849;48.154;17.042;2023-01-16T03:09:49;97912.56;;;3.66;100.00
60976;BME280;46849;48.154;17.042;2023-01-16T03:16:12;97914.69;;;3.91;100.00
60976;BME280;46849;48.154;17.042;2023-01-16T03:19:32;97912.59;;;3.98;100.00
60976;BME280;46849;48.154;17.042;2023-01-16T03:22:44;97906.22;;;4.04;100.00
60976;BME280;46849;48.154;17.042;2023-01-16T03:31:49;97905.34;;;4.19;100.00
60976;BME280;46849;48.154;17.042;2023-01-16T03:34:57;97898.00;;;4.12;100.00
60976;BME280;46849;48.154;17.042;2023-01-16T03:38:04;97893.25;;;4.04;100.00
60976;BME280;46849;48.154;17.042;2023-01-16T03:40:50;97897.34;;;4.08;100.00
60976;BME280;46849;48.154;17.042;2023-01-16T03:43:38;97893.09;;;4.07;100.00
60976;BME280;46849;48.154;17.042;2023-01-16T03:46:29;97890.25;;;4.12;100.00
60976;BME280;46849;48.154;17.042;2023-01-16T03:49:18;97883.72;;;4.21;100.00
60976;BME280;46849;48.154;17.042;2023-01-16T03:52:09;97881.72;;;4.10;100.00
60976;BME280;46849;48.154;17.042;2023-01-16T03:55:02;97877.84;;;4.17;100.00
60976;BME280;46849;48.154;17.042;2023-01-16T03:58:01;97869.41;;;4.13;100.00
60976;BME280;46849;48.154;17.042;2023-01-16T04:00:53;97867.41;;;4.18;100.00
60976;BME280;46849;48.154;17.042;2023-01-16T04:03:46;97865.38;;;4.24;100.00
60976;BME280;46849;48.154;17.042;2023-01-16T04:06:47;97858.69;;;4.19;100.00
60976;BME280;46849;48.154;17.042;2023-01-16T04:09:35;97853.50;;;4.19;100.00
60976;BME280;46849;48.154;17.042;2023-01-16T04:12:25;97845.50;;;4.08;100.00
60976;BME280;46849;48.154;17.042;2023-01-16T04:15:13;97834.56;;;4.03;100.00
60976;BME280;46849;48.154;17.042;2023-01-16T04:17:58;97832.66;;;4.21;100.00
60976;BME280;46849;48.154;17.042;2023-01-16T04:20:45;97827.13;;;4.13;100.00
60976;BME280;46849;48.154;17.042;2023-01-16T04:23:30;97825.44;;;4.12;100.00
60976;BME280;46849;48.154;17.042;2023-01-16T04:26:16;97831.47;;;4.12;100.00
60976;BME280;46849;48.154;17.042;2023-01-16T04:29:01;97825.47;;;4.26;100.00
60976;BME280;46849;48.154;17.042;2023-01-16T04:31:46;97822.56;;;4.16;100.00
60976;BME280;46849;48.154;17.042;2023-01-16T04:34:31;97818.66;;;4.09;100.00
60976;BME280;46849;48.154;17.042;2023-01-16T04:37:16;97817.81;;;4.09;100.00
60976;BME280;46849;48.154;17.042;2023-01-16T04:40:03;97810.06;;;4.09;100.00
60976;BME280;46849;48.154;17.042;2023-01-16T04:42:48;97812.09;;;4.18;100.00
60976;BME280;46849;48.154;17.042;2023-01-16T04:45:33;97811.03;;;4.22;100.00
60976;BME280;46849;48.154;17.042;2023-01-16T04:48:17;97806.75;;;4.21;100.00
60976;BME280;46849;48.154;17.042;2023-01-16T04:51:02;97804.09;;;4.23;100.00
60976;BME280;46849;48.154;17.042;2023-01-16T04:53:47;97814.00;;;4.30;100.00
60976;BME280;46849;48.154;17.042;2023-01-16T04:56:56;97812.81;;;4.36;100.00
60976;BME280;46849;48.154;17.042;2023-01-16T04:59:41;97802.53;;;4.35;100.00
60976;BME280;46849;48.154;17.042;2023-01-16T05:02:27;97797.91;;;4.40;100.00
60976;BME280;46849;48.154;17.042;2023-01-16T05:05:11;97799.94;;;4.35;100.00
60976;BME280;46849;48.154;17.042;2023-01-16T05:07:56;97797.94;;;4.54;100.00
60976;BME280;46849;48.154;17.042;2023-01-16T05:10:59;97793.66;;;4.39;100.00
60976;BME280;46849;48.154;17.042;2023-01-16T05:13:45;97793.75;;;4.37;100.00
60976;BME280;46849;48.154;17.042;2023-01-16T05:16:30;97797.81;;;4.41;100.00
60976;BME280;46849;48.154;17.042;2023-01-16T05:19:15;97801.25;;;4.42;100.00
60976;BME280;46849;48.154;17.042;2023-01-16T05:21:59;97793.09;;;4.34;100.00
60976;BME280;46849;48.154;17.042;2023-01-16T05:24:44;97801.94;;;4.29;100.00
60976;BME280;46849;48.154;17.042;2023-01-16T05:27:28;97803.63;;;4.30;100.00
60976;BME280;46849;48.154;17.042;2023-01-16T05:30:14;97802.78;;;4.30;100.00
60976;BME280;46849;48.154;17.042;2023-01-16T05:32:58;97793.34;;;4.29;100.00
60976;BME280;46849;48.154;17.042;2023-01-16T05:35:45;97791.81;;;4.70;100.00
60976;BME280;46849;48.154;17.042;2023-01-16T05:38:30;97790.69;;;5.03;100.00
60976;BME280;46849;48.154;17.042;2023-01-16T05:41:14;97790.50;;;5.07;100.00
60976;BME280;46849;48.154;17.042;2023-01-16T05:43:59;97792.75;;;4.98;100.00
60976;BME280;46849;48.154;17.042;2023-01-16T05:46:43;97792.00;;;4.96;100.00
60976;BME280;46849;48.154;17.042;2023-01-16T05:49:28;97791.66;;;5.02;100.00
60976;BME280;46849;48.154;17.042;2023-01-16T05:52:13;97786.97;;;5.37;100.00
60976;BME280;46849;48.154;17.042;2023-01-16T05:54:57;97787.34;;;5.16;100.00
60976;BME280;46849;48.154;17.042;2023-01-16T05:57:42;97787.34;;;5.01;100.00
60976;BME280;46849;48.154;17.042;2023-01-16T06:00:27;97783.31;;;4.83;100.00
60976;BME280;46849;48.154;17.042;2023-01-16T06:03:12;97773.31;;;4.76;100.00
60976;BME280;46849;48.154;17.042;2023-01-16T06:05:56;97768.91;;;4.62;100.00
60976;BME280;46849;48.154;17.042;2023-01-16T06:08:43;97759.94;;;4.68;100.00
60976;BME280;46849;48.154;17.042;2023-01-16T06:11:27;97755.94;;;4.77;100.00
60976;BME280;46849;48.154;17.042;2023-01-16T06:14:12;97754.56;;;4.71;100.00
60976;BME280;46849;48.154;17.042;2023-01-16T06:16:58;97752.97;;;4.54;100.00
60976;BME280;46849;48.154;17.042;2023-01-16T06:19:43;97752.78;;;4.57;100.00
60976;BME280;46849;48.154;17.042;2023-01-16T06:22:28;97738.34;;;4.67;100.00
60976;BME280;46849;48.154;17.042;2023-01-16T06:25:12;97734.91;;;4.67;100.00
60976;BME280;46849;48.154;17.042;2023-01-16T06:27:57;97734.66;;;4.72;100.00
60976;BME280;46849;48.154;17.042;2023-01-16T06:30:42;97728.63;;;4.42;94.88
60976;BME280;46849;48.154;17.042;2023-01-16T06:33:28;97725.47;;;4.37;99.89
60976;BME280;46849;48.154;17.042;2023-01-16T06:36:13;97726.59;;;4.47;100.00
60976;BME280;46849;48.154;17.042;2023-01-16T06:38:59;97727.13;;;4.52;100.00
60976;BME280;46849;48.154;17.042;2023-01-16T06:41:44;97725.28;;;4.54;99.31
60976;BME280;46849;48.154;17.042;2023-01-16T06:44:28;97715.19;;;4.50;100.00
60976;BME280;46849;48.154;17.042;2023-01-16T06:47:14;97707.22;;;4.38;100.00
60976;BME280;46849;48.154;17.042;2023-01-16T06:50:00;97716.84;;;4.36;100.00
60976;BME280;46849;48.154;17.042;2023-01-16T06:52:47;97724.72;;;4.49;100.00
60976;BME280;46849;48.154;17.042;2023-01-16T06:55:32;97713.16;;;4.40;100.00
60976;BME280;46849;48.154;17.042;2023-01-16T06:58:17;97705.66;;;4.36;100.00
60976;BME280;46849;48.154;17.042;2023-01-16T07:01:02;97706.66;;;4.33;100.00
60976;BME280;46849;48.154;17.042;2023-01-16T07:03:47;97704.44;;;4.27;100.00
60976;BME280;46849;48.154;17.042;2023-01-16T07:06:32;97694.34;;;4.22;99.88
60976;BME280;46849;48.154;17.042;2023-01-16T07:09:17;97686.47;;;4.24;99.34
60976;BME280;46849;48.154;17.042;2023-01-16T07:12:04;97692.31;;;4.27;95.16
60976;BME280;46849;48.154;17.042;2023-01-16T07:14:50;97677.38;;;4.31;95.43
60976;BME280;46849;48.154;17.042;2023-01-16T07:17:53;97679.72;;;4.36;94.46
60976;BME280;46849;48.154;17.042;2023-01-16T07:20:58;97676.94;;;4.24;93.89
60976;BME280;46849;48.154;17.042;2023-01-16T07:24:04;97671.91;;;4.06;95.55
60976;BME280;46849;48.154;17.042;2023-01-16T07:26:56;97665.53;;;4.12;97.08
60976;BME280;46849;48.154;17.042;2023-01-16T07:29:42;97666.91;;;4.03;95.99
60976;BME280;46849;48.154;17.042;2023-01-16T07:32:27;97655.63;;;4.04;96.42
60976;BME280;46849;48.154;17.042;2023-01-16T07:35:11;97652.56;;;4.12;92.83
60976;BME280;46849;48.154;17.042;2023-01-16T07:37:58;97634.53;;;4.25;95.06
60976;BME280;46849;48.154;17.042;2023-01-16T07:40:43;97622.84;;;4.32;96.41
60976;BME280;46849;48.154;17.042;2023-01-16T07:43:27;97619.69;;;4.42;95.05
60976;BME280;46849;48.154;17.042;2023-01-16T07:46:12;97615.97;;;4.46;93.67
60976;BME280;46849;48.154;17.042;2023-01-16T07:48:58;97607.38;;;4.31;94.08
60976;BME280;46849;48.154;17.042;2023-01-16T07:51:42;97603.88;;;4.32;95.44
60976;BME280;46849;48.154;17.042;2023-01-16T07:54:27;97601.19;;;4.34;95.00
60976;BME280;46849;48.154;17.042;2023-01-16T07:57:11;97590.72;;;4.21;94.17
60976;BME280;46849;48.154;17.042;2023-01-16T07:59:56;97578.94;;;4.29;93.72
60976;BME280;46849;48.154;17.042;2023-01-16T08:02:42;97577.94;;;4.17;93.77
60976;BME280;46849;48.154;17.042;2023-01-16T08:05:28;97576.00;;;4.36;93.55
60976;BME280;46849;48.154;17.042;2023-01-16T08:08:12;97567.28;;;4.22;92.82
60976;BME280;46849;48.154;17.042;2023-01-16T08:10:59;97565.53;;;4.23;95.29
60976;BME280;46849;48.154;17.042;2023-01-16T08:13:44;97543.19;;;4.35;95.48
60976;BME280;46849;48.154;17.042;2023-01-16T08:16:28;97535.66;;;4.44;94.12
60976;BME280;46849;48.154;17.042;2023-01-16T08:19:13;97528.19;;;4.40;94.69
60976;BME280;46849;48.154;17.042;2023-01-16T08:21:57;97522.25;;;4.38;93.99
60976;BME280;46849;48.154;17.042;2023-01-16T08:24:43;97513.75;;;4.36;92.76
60976;BME280;46849;48.154;17.042;2023-01-16T08:27:27;97495.91;;;4.44;92.90
60976;BME280;46849;48.154;17.042;2023-01-16T08:30:13;97491.38;;;4.48;92.05
60976;BME280;46849;48.154;17.042;2023-01-16T08:33:00;97491.81;;;4.54;92.22
60976;BME280;46849;48.154;17.042;2023-01-16T08:35:45;97494.41;;;4.54;93.71
60976;BME280;46849;48.154;17.042;2023-01-16T08:38:30;97480.59;;;4.54;93.06
60976;BME280;46849;48.154;17.042;2023-01-16T08:41:16;97483.19;;;4.54;93.24
60976;BME280;46849;48.154;17.042;2023-01-16T08:44:20;97466.28;;;4.21;93.59
60976;BME280;46849;48.154;17.042;2023-01-16T08:47:24;97448.19;;;4.06;92.47
60976;BME280;46849;48.154;17.042;2023-01-16T08:50:27;97439.56;;;4.05;93.80
60976;BME280;46849;48.154;17.042;2023-01-16T08:53:30;97434.03;;;3.97;93.50
60976;BME280;46849;48.154;17.042;2023-01-16T08:56:15;97437.66;;;3.94;93.51
60976;BME280;46849;48.154;17.042;2023-01-16T08:59:00;97440.41;;;4.06;94.59
60976;BME280;46849;48.154;17.042;2023-01-16T09:01:44;97431.69;;;4.07;95.62
60976;BME280;46849;48.154;17.042;2023-01-16T09:04:29;97428.88;;;4.10;97.81
60976;BME280;46849;48.154;17.042;2023-01-16T09:07:15;97434.28;;;4.07;98.07
60976;BME280;46849;48.154;17.042;2023-01-16T09:09:59;97424.91;;;3.77;97.92
60976;BME280;46849;48.154;17.042;2023-01-16T09:12:45;97419.44;;;3.81;97.58
60976;BME280;46849;48.154;17.042;2023-01-16T09:15:48;97428.91;;;3.39;98.07
60976;BME280;46849;48.154;17.042;2023-01-16T09:18:34;97420.13;;;3.41;98.78
60976;BME280;46849;48.154;17.042;2023-01-16T09:21:19;97415.31;;;3.50;98.49
60976;BME280;46849;48.154;17.042;2023-01-16T09:24:19;97404.69;;;3.40;100.00
60976;BME280;46849;48.154;17.042;2023-01-16T09:27:05;97398.97;;;3.49;100.00
60976;BME280;46849;48.154;17.042;2023-01-16T09:29:49;97384.94;;;3.66;100.00
60976;BME280;46849;48.154;17.042;2023-01-16T09:32:35;97384.16;;;3.37;100.00
60976;BME280;46849;48.154;17.042;2023-01-16T09:35:19;97381.75;;;3.48;100.00
60976;BME280;46849;48.154;17.042;2023-01-16T09:38:04;97368.59;;;3.51;100.00
60976;BME280;46849;48.154;17.042;2023-01-16T09:40:55;97360.03;;;3.51;100.00
60976;BME280;46849;48.154;17.042;2023-01-16T09:43:43;97357.25;;;3.39;100.00
60976;BME280;46849;48.154;17.042;2023-01-16T09:46:36;97348.25;;;3.45;100.00
60976;BME280;46849;48.154;17.042;2023-01-16T09:49:31;97339.56;;;3.61;100.00
60976;BME280;46849;48.154;17.042;2023-01-16T09:52:26;97342.53;;;3.40;100.00
60976;BME280;46849;48.154;17.042;2023-01-16T09:55:39;97335.25;;;3.32;100.00
60976;BME280;46849;48.154;17.042;2023-01-16T09:58:57;97331.97;;;3.43;100.00
60976;BME280;46849;48.154;17.042;2023-01-16T10:01:50;97320.97;;;3.12;100.00
60976;BME280;46849;48.154;17.042;2023-01-16T10:04:36;97298.41;;;3.41;100.00
60976;BME280;46849;48.154;17.042;2023-01-16T10:10:41;97287.44;;;3.38;100.00
60976;BME280;46849;48.154;17.042;2023-01-16T10:17:07;97279.69;;;3.38;100.00
60976;BME280;46849;48.154;17.042;2023-01-16T10:26:16;97243.78;;;3.31;100.00
60976;BME280;46849;48.154;17.042;2023-01-16T10:29:18;97236.09;;;3.44;100.00
60976;BME280;46849;48.154;17.042;2023-01-16T10:32:16;97236.03;;;3.31;100.00
60976;BME280;46849;48.154;17.042;2023-01-16T10:35:08;97225.16;;;3.26;100.00
60976;BME280;46849;48.154;17.042;2023-01-16T10:38:09;97226.84;;;3.13;100.00
60976;BME280;46849;48.154;17.042;2023-01-16T10:40:59;97223.22;;;3.43;100.00
60976;BME280;46849;48.154;17.042;2023-01-16T10:43:45;97223.47;;;3.53;100.00
60976;BME280;46849;48.154;17.042;2023-01-16T10:46:55;97222.06;;;3.62;100.00
60976;BME280;46849;48.154;17.042;2023-01-16T10:50:01;97217.66;;;3.36;100.00
60976;BME280;46849;48.154;17.042;2023-01-16T10:52:47;97203.94;;;3.62;100.00
60976;BME280;46849;48.154;17.042;2023-01-16T10:55:47;97200.66;;;3.45;100.00
60976;BME280;46849;48.154;17.042;2023-01-16T10:58:35;97193.38;;;3.65;100.00
60976;BME280;46849;48.154;17.042;2023-01-16T11:01:23;97193.97;;;3.55;100.00
60976;BME280;46849;48.154;17.042;2023-01-16T11:04:11;97180.78;;;3.45;100.00
60976;BME280;46849;48.154;17.042;2023-01-16T11:07:12;97165.56;;;3.41;100.00
60976;BME280;46849;48.154;17.042;2023-01-16T11:09:57;97158.22;;;3.48;100.00
60976;BME280;46849;48.154;17.042;2023-01-16T11:12:42;97162.97;;;3.41;100.00
60976;BME280;46849;48.154;17.042;2023-01-16T11:19:20;97132.38;;;3.33;100.00
60976;BME280;46849;48.154;17.042;2023-01-16T11:22:21;97136.84;;;3.31;100.00
60976;BME280;46849;48.154;17.042;2023-01-16T11:25:14;97127.84;;;3.37;100.00
60976;BME280;46849;48.154;17.042;2023-01-16T11:28:09;97122.31;;;3.28;100.00
60976;BME280;46849;48.154;17.042;2023-01-16T11:31:00;97107.69;;;3.14;100.00
60976;BME280;46849;48.154;17.042;2023-01-16T11:33:52;97101.50;;;3.30;100.00
60976;BME280;46849;48.154;17.042;2023-01-16T11:36:40;97100.41;;;3.34;100.00
60976;BME280;46849;48.154;17.042;2023-01-16T11:39:31;97085.41;;;3.39;100.00
60976;BME280;46849;48.154;17.042;2023-01-16T11:42:20;97090.53;;;3.13;100.00
60976;BME280;46849;48.154;17.042;2023-01-16T11:45:26;97080.56;;;3.20;100.00
60976;BME280;46849;48.154;17.042;2023-01-16T11:48:44;97067.47;;;3.36;100.00
60976;BME280;46849;48.154;17.042;2023-01-16T11:51:36;97062.69;;;3.43;100.00
60976;BME280;46849;48.154;17.042;2023-01-16T11:54:27;97053.91;;;3.45;100.00
60976;BME280;46849;48.154;17.042;2023-01-16T12:00:11;97051.53;;;3.55;100.00
60976;BME280;46849;48.154;17.042;2023-01-16T12:06:43;97024.28;;;3.37;100.00
60976;BME280;46849;48.154;17.042;2023-01-16T12:12:34;97008.53;;;3.27;100.00
60976;BME280;46849;48.154;17.042;2023-01-16T12:18:44;96987.22;;;3.36;100.00
60976;BME280;46849;48.154;17.042;2023-01-16T12:24:40;96969.59;;;3.15;100.00
60976;BME280;46849;48.154;17.042;2023-01-16T12:33:17;96953.97;;;3.30;100.00
60976;BME280;46849;48.154;17.042;2023-01-16T12:36:19;96945.81;;;3.23;100.00
60976;BME280;46849;48.154;17.042;2023-01-16T12:39:31;96937.94;;;3.12;100.00
60976;BME280;46849;48.154;17.042;2023-01-16T12:46:00;96934.16;;;2.77;100.00
60976;BME280;46849;48.154;17.042;2023-01-16T12:55:02;96910.25;;;2.60;100.00
60976;BME280;46849;48.154;17.042;2023-01-16T13:04:09;96871.47;;;2.86;100.00
60976;BME280;46849;48.154;17.042;2023-01-16T13:06:56;96865.88;;;2.79;100.00
60976;BME280;46849;48.154;17.042;2023-01-16T13:09:47;96858.75;;;2.70;100.00
60976;BME280;46849;48.154;17.042;2023-01-16T13:12:36;96854.94;;;2.89;100.00
60976;BME280;46849;48.154;17.042;2023-01-16T13:15:41;96856.69;;;2.88;100.00
60976;BME280;46849;48.154;17.042;2023-01-16T13:18:41;96844.88;;;2.58;100.00
60976;BME280;46849;48.154;17.042;2023-01-16T13:22:04;96827.56;;;2.32;100.00
60976;BME280;46849;48.154;17.042;2023-01-16T13:31:23;96811.78;;;2.50;100.00
60976;BME280;46849;48.154;17.042;2023-01-16T13:34:24;96799.59;;;2.52;100.00
60976;BME280;46849;48.154;17.042;2023-01-16T13:37:39;96803.72;;;2.55;100.00
60976;BME280;46849;48.154;17.042;2023-01-16T13:43:47;96774.44;;;2.28;100.00
60976;BME280;46849;48.154;17.042;2023-01-16T13:47:10;96771.66;;;2.31;100.00
60976;BME280;46849;48.154;17.042;2023-01-16T13:53:00;96766.28;;;2.34;100.00
60976;BME280;46849;48.154;17.042;2023-01-16T13:55:50;96765.56;;;2.32;100.00
60976;BME280;46849;48.154;17.042;2023-01-16T13:58:45;96767.59;;;2.79;100.00
60976;BME280;46849;48.154;17.042;2023-01-16T14:13:43;96739.19;;;2.14;100.00
60976;BME280;46849;48.154;17.042;2023-01-16T14:16:35;96730.72;;;2.25;100.00
60976;BME280;46849;48.154;17.042;2023-01-16T14:19:22;96715.41;;;2.22;100.00
60976;BME280;46849;48.154;17.042;2023-01-16T14:22:16;96710.88;;;2.26;100.00
60976;BME280;46849;48.154;17.042;2023-01-16T14:25:03;96714.19;;;2.15;100.00
60976;BME280;46849;48.154;17.042;2023-01-16T14:27:52;96698.25;;;2.21;100.00
60976;BME280;46849;48.154;17.042;2023-01-16T14:30:38;96694.84;;;2.20;100.00
60976;BME280;46849;48.154;17.042;2023-01-16T14:33:25;96684.59;;;2.19;100.00
60976;BME280;46849;48.154;17.042;2023-01-16T14:36:13;96679.53;;;2.30;100.00
60976;BME280;46849;48.154;17.042;2023-01-16T14:38:58;96674.88;;;2.36;100.00
60976;BME280;46849;48.154;17.042;2023-01-16T14:41:46;96662.16;;;2.32;100.00
60976;BME280;46849;48.154;17.042;2023-01-16T14:45:18;96638.41;;;2.27;100.00
60976;BME280;46849;48.154;17.042;2023-01-16T14:51:33;96641.06;;;2.39;100.00
60976;BME280;46849;48.154;17.042;2023-01-16T14:54:36;96636.41;;;2.44;100.00
60976;BME280;46849;48.154;17.042;2023-01-16T15:01:47;96634.56;;;2.46;100.00
60976;BME280;46849;48.154;17.042;2023-01-16T15:04:56;96628.03;;;2.40;100.00
60976;BME280;46849;48.154;17.042;2023-01-16T15:07:47;96633.50;;;2.49;100.00
60976;BME280;46849;48.154;17.042;2023-01-16T15:10:39;96636.91;;;2.62;100.00
60976;BME280;46849;48.154;17.042;2023-01-16T15:13:30;96633.75;;;2.70;100.00
60976;BME280;46849;48.154;17.042;2023-01-16T15:16:36;96641.03;;;2.52;100.00
60976;BME280;46849;48.154;17.042;2023-01-16T15:19:39;96631.94;;;2.59;100.00
60976;BME280;46849;48.154;17.042;2023-01-16T15:22:44;96623.38;;;2.45;100.00
60976;BME280;46849;48.154;17.042;2023-01-16T15:25:49;96619.06;;;2.46;100.00
60976;BME280;46849;48.154;17.042;2023-01-16T15:28:42;96605.00;;;2.37;100.00
60976;BME280;46849;48.154;17.042;2023-01-16T15:31:40;96600.88;;;2.34;100.00
60976;BME280;46849;48.154;17.042;2023-01-16T15:34:27;96585.72;;;2.54;100.00
60976;BME280;46849;48.154;17.042;2023-01-16T15:37:22;96566.75;;;2.67;100.00
60976;BME280;46849;48.154;17.042;2023-01-16T15:40:19;96561.41;;;2.57;100.00
60976;BME280;46849;48.154;17.042;2023-01-16T15:43:05;96555.72;;;2.52;100.00
60976;BME280;46849;48.154;17.042;2023-01-16T15:46:18;96556.91;;;2.72;100.00
60976;BME280;46849;48.154;17.042;2023-01-16T15:49:40;96544.16;;;2.82;100.00
60976;BME280;46849;48.154;17.042;2023-01-16T15:52:30;96537.91;;;2.85;100.00
60976;BME280;46849;48.154;17.042;2023-01-16T15:55:26;96529.63;;;3.04;100.00
60976;BME280;46849;48.154;17.042;2023-01-16T15:58:15;96546.78;;;2.93;100.00
60976;BME280;46849;48.154;17.042;2023-01-16T16:01:10;96522.78;;;2.91;100.00
60976;BME280;46849;48.154;17.042;2023-01-16T16:04:14;96523.06;;;3.11;100.00
60976;BME280;46849;48.154;17.042;2023-01-16T16:07:02;96520.53;;;2.87;100.00
60976;BME280;46849;48.154;17.042;2023-01-16T16:09:58;96527.25;;;3.01;100.00
60976;BME280;46849;48.154;17.042;2023-01-16T16:12:52;96524.69;;;3.01;100.00
60976;BME280;46849;48.154;17.042;2023-01-16T16:15:36;96522.47;;;3.07;100.00
60976;BME280;46849;48.154;17.042;2023-01-16T16:19:07;96508.59;;;3.08;100.00
60976;BME280;46849;48.154;17.042;2023-01-16T16:22:08;96503.28;;;2.99;100.00
60976;BME280;46849;48.154;17.042;2023-01-16T16:25:26;96518.66;;;2.89;100.00
60976;BME280;46849;48.154;17.042;2023-01-16T16:31:29;96496.94;;;2.67;100.00
60976;BME280;46849;48.154;17.042;2023-01-16T16:34:21;96483.66;;;2.71;100.00
60976;BME280;46849;48.154;17.042;2023-01-16T16:37:12;96490.25;;;2.64;100.00
60976;BME280;46849;48.154;17.042;2023-01-16T16:40:14;96485.50;;;2.58;100.00
60976;BME280;46849;48.154;17.042;2023-01-16T16:43:00;96483.19;;;2.66;100.00
60976;BME280;46849;48.154;17.042;2023-01-16T16:45:45;96475.53;;;2.65;100.00
60976;BME280;46849;48.154;17.042;2023-01-16T16:48:31;96479.28;;;2.61;100.00
60976;BME280;46849;48.154;17.042;2023-01-16T16:51:30;96481.16;;;2.58;100.00
60976;BME280;46849;48.154;17.042;2023-01-16T16:54:18;96486.81;;;2.64;100.00
60976;BME280;46849;48.154;17.042;2023-01-16T16:57:08;96497.16;;;2.64;100.00
60976;BME280;46849;48.154;17.042;2023-01-16T16:59:54;96485.72;;;2.55;100.00
60976;BME280;46849;48.154;17.042;2023-01-16T17:02:39;96474.44;;;2.56;100.00
60976;BME280;46849;48.154;17.042;2023-01-16T17:05:28;96448.38;;;2.59;100.00